Time;durP1;ratioP1;P1;durP2;ratioP2;P2;SDS_P1;SDS_P2;PMS_P1;PMS_P2;Temp;Humidity;BMP_temperature;BMP_pressure;BME280_temperature;BME280_humidity;BME280_pressure;Samples;Min_cycle;Max_cycle;Signal;HPM_P1;HPM_P2
2023/09/08 00:00:12;;;;;;;;;;;;;;;22.19;68.14;97536.05;599269;237;64368;-63
2023/09/08 00:02:40;;;;;;;;;;;;;;;22.18;68.39;97526.41;599257;237;65291;-64
2023/09/08 00:05:07;;;;;;;;;;;;;;;22.18;66.40;97526.41;599210;237;65851;-63
2023/09/08 00:07:35;;;;;;;;;;;;;;;22.17;66.39;97525.56;599258;237;67494;-63
2023/09/08 00:10:02;;;;;;;;;;;;;;;22.19;65.87;97528.02;599240;237;65047;-63
2023/09/08 00:12:30;;;;;;;;;;;;;;;22.17;65.90;97520.20;599239;237;67218;-63
2023/09/08 00:14:57;;;;;;;;;;;;;;;22.17;65.08;97522.08;599187;237;64757;-63
2023/09/08 00:17:25;;;;;;;;;;;;;;;22.19;65.02;97521.86;599229;237;63669;-63
2023/09/08 00:19:52;;;;;;;;;;;;;;;22.17;65.13;97524.76;599295;237;64786;-63
2023/09/08 00:22:20;;;;;;;;;;;;;;;22.19;64.93;97527.22;599233;237;64978;-63
2023/09/08 00:24:48;;;;;;;;;;;;;;;22.16;64.70;97526.64;599251;237;64928;-63
2023/09/08 00:27:15;;;;;;;;;;;;;;;22.19;66.49;97527.22;599235;237;66765;-63
2023/09/08 00:29:43;;;;;;;;;;;;;;;22.18;64.68;97529.09;599237;237;64677;-63
2023/09/08 00:32:11;;;;;;;;;;;;;;;22.19;64.72;97528.02;599250;237;65315;-63
2023/09/08 00:34:40;;;;;;;;;;;;;;;22.18;64.19;97537.13;599235;237;68174;-63
2023/09/08 00:37:09;;;;;;;;;;;;;;;22.17;64.45;97525.56;599217;237;67009;-63
2023/09/08 00:39:38;;;;;;;;;;;;;;;22.17;66.14;97525.56;599217;237;64946;-63
2023/09/08 00:42:06;;;;;;;;;;;;;;;22.17;64.47;97530.11;599202;237;67766;-63
2023/09/08 00:44:35;;;;;;;;;;;;;;;22.17;65.05;97535.47;599282;237;64978;-63
2023/09/08 00:47:02;;;;;;;;;;;;;;;22.17;64.88;97541.62;599239;237;63558;-62
2023/09/08 00:49:29;;;;;;;;;;;;;;;22.16;64.17;97545.38;599261;237;64841;-63
2023/09/08 00:51:57;;;;;;;;;;;;;;;22.16;64.70;97533.88;599234;237;64898;-63
2023/09/08 00:54:25;;;;;;;;;;;;;;;22.17;64.02;97532.79;599229;237;62609;-63
2023/09/08 00:56:54;;;;;;;;;;;;;;;22.17;65.50;97538.14;599218;237;67427;-63
2023/09/08 00:59:21;;;;;;;;;;;;;;;22.16;64.39;97544.58;599245;237;67119;-69
2023/09/08 01:01:49;;;;;;;;;;;;;;;22.16;65.01;97539.22;599222;237;63702;-69
2023/09/08 01:04:16;;;;;;;;;;;;;;;22.16;65.06;97539.22;599170;237;64703;-69
2023/09/08 01:06:45;;;;;;;;;;;;;;;22.16;65.67;97539.22;599215;237;67001;-69
2023/09/08 01:09:14;;;;;;;;;;;;;;;22.15;65.42;97546.45;599286;237;65788;-69
2023/09/08 01:11:42;;;;;;;;;;;;;;;22.14;64.09;97530.65;599197;237;65026;-69
2023/09/08 01:14:11;;;;;;;;;;;;;;;22.14;64.88;97542.16;599247;237;66735;-69
2023/09/08 01:16:39;;;;;;;;;;;;;;;22.15;64.40;97537.59;599203;237;66041;-69
2023/09/08 01:19:11;;;;;;;;;;;;;;;22.15;64.34;97542.95;599217;237;67246;-68
2023/09/08 01:21:46;;;;;;;;;;;;;;;22.15;64.44;97537.59;599205;237;66309;-62
2023/09/08 01:24:16;;;;;;;;;;;;;;;22.14;64.89;97542.16;599037;237;65158;-62
2023/09/08 01:26:43;;;;;;;;;;;;;;;22.13;64.37;97537.88;599269;237;67992;-62
2023/09/08 01:29:11;;;;;;;;;;;;;;;22.13;64.71;97539.77;599247;237;64724;-62
2023/09/08 01:31:39;;;;;;;;;;;;;;;22.13;64.43;97540.56;599260;237;63040;-68
2023/09/08 01:34:07;;;;;;;;;;;;;;;22.13;64.08;97539.77;599233;237;65128;-68
2023/09/08 01:36:37;;;;;;;;;;;;;;;22.13;64.07;97545.11;599330;237;64840;-68
2023/09/08 01:39:05;;;;;;;;;;;;;;;22.13;64.65;97543.23;599278;237;65197;-68
2023/09/08 01:41:33;;;;;;;;;;;;;;;22.12;65.49;97543.48;599245;237;66950;-68
2023/09/08 01:44:05;;;;;;;;;;;;;;;22.12;66.43;97538.13;599280;237;64782;-68
2023/09/08 01:46:30;;;;;;;;;;;;;;;22.12;66.38;97535.45;599173;237;62754;-69
2023/09/08 01:48:58;;;;;;;;;;;;;;;22.10;66.62;97540.30;599247;237;65112;-68
2023/09/08 01:51:25;;;;;;;;;;;;;;;22.10;65.81;97532.27;599312;237;67270;-69
2023/09/08 01:53:53;;;;;;;;;;;;;;;22.10;65.58;97540.30;599261;237;65826;-68
2023/09/08 01:56:20;;;;;;;;;;;;;;;22.11;64.75;97541.89;599240;237;68051;-68
2023/09/08 01:58:48;;;;;;;;;;;;;;;22.10;65.47;97537.62;599248;237;67288;-68
2023/09/08 02:01:15;;;;;;;;;;;;;;;22.11;65.17;97544.56;599274;237;65006;-69
2023/09/08 02:03:43;;;;;;;;;;;;;;;22.09;64.56;97544.81;599295;237;67858;-68
2023/09/08 02:06:11;;;;;;;;;;;;;;;22.10;63.94;97537.62;599253;237;64357;-68
2023/09/08 02:08:38;;;;;;;;;;;;;;;22.11;63.98;97539.21;599260;237;65260;-68
2023/09/08 02:11:07;;;;;;;;;;;;;;;22.10;64.55;97540.30;599215;237;68214;-68
2023/09/08 02:13:34;;;;;;;;;;;;;;;22.10;65.27;97540.30;599268;237;66959;-68
2023/09/08 02:16:02;;;;;;;;;;;;;;;22.09;64.97;97538.67;599244;237;64921;-71
2023/09/08 02:18:29;;;;;;;;;;;;;;;22.09;64.01;97550.17;599219;237;65927;-68
2023/09/08 02:20:57;;;;;;;;;;;;;;;22.09;64.48;97535.99;599261;237;65944;-68
2023/09/08 02:23:24;;;;;;;;;;;;;;;22.08;64.19;97537.88;599248;237;64929;-69
2023/09/08 02:25:52;;;;;;;;;;;;;;;22.08;63.76;97537.07;599258;237;68327;-68
2023/09/08 02:28:20;;;;;;;;;;;;;;;22.09;63.62;97544.02;599325;237;66722;-69
2023/09/08 02:30:48;;;;;;;;;;;;;;;22.09;63.35;97544.02;599218;237;65660;-68
2023/09/08 02:33:16;;;;;;;;;;;;;;;22.09;63.42;97544.81;599249;237;64875;-68
2023/09/08 02:35:44;;;;;;;;;;;;;;;22.09;63.44;97539.47;599250;237;67442;-68
2023/09/08 02:38:12;;;;;;;;;;;;;;;22.09;63.46;97530.64;599239;237;63707;-68
2023/09/08 02:40:39;;;;;;;;;;;;;;;22.09;63.27;97544.02;599292;237;67096;-68
2023/09/08 02:43:07;;;;;;;;;;;;;;;22.08;63.21;97537.07;599285;237;67788;-69
2023/09/08 02:45:35;;;;;;;;;;;;;;;22.08;62.87;97537.07;599204;237;62510;-68
2023/09/08 02:48:02;;;;;;;;;;;;;;;22.09;62.64;97530.64;599271;237;64889;-62
2023/09/08 02:50:30;;;;;;;;;;;;;;;22.08;62.65;97534.39;599250;237;67416;-62
2023/09/08 02:52:58;;;;;;;;;;;;;;;22.09;62.47;97535.99;599248;237;65068;-62
2023/09/08 02:55:25;;;;;;;;;;;;;;;22.09;62.59;97538.67;599311;237;64498;-62
2023/09/08 02:57:53;;;;;;;;;;;;;;;22.08;62.41;97539.75;599253;237;64505;-62
2023/09/08 03:00:21;;;;;;;;;;;;;;;22.07;62.49;97530.92;599200;237;63757;-62
2023/09/08 03:02:49;;;;;;;;;;;;;;;22.08;62.25;97531.72;599243;237;67895;-62
2023/09/08 03:05:17;;;;;;;;;;;;;;;22.07;62.46;97530.09;599250;237;66996;-62
2023/09/08 03:07:44;;;;;;;;;;;;;;;22.07;62.39;97532.77;599299;237;62706;-62
2023/09/08 03:10:12;;;;;;;;;;;;;;;22.07;62.39;97527.41;599278;237;64629;-62
2023/09/08 03:12:40;;;;;;;;;;;;;;;22.06;62.43;97523.14;599231;237;67326;-62
2023/09/08 03:15:08;;;;;;;;;;;;;;;22.07;62.36;97522.06;599216;237;65254;-62
2023/09/08 03:17:35;;;;;;;;;;;;;;;22.06;62.43;97523.94;599307;237;64881;-62
2023/09/08 03:20:07;;;;;;;;;;;;;;;22.06;62.43;97523.14;599325;237;64306;-62
2023/09/08 03:22:33;;;;;;;;;;;;;;;22.06;62.16;97528.49;599279;237;62327;-62
2023/09/08 03:25:01;;;;;;;;;;;;;;;22.06;62.30;97539.20;599242;237;66796;-62
2023/09/08 03:27:28;;;;;;;;;;;;;;;22.04;62.17;97523.39;599272;237;67565;-62
2023/09/08 03:29:56;;;;;;;;;;;;;;;22.05;62.25;97522.34;599241;237;65100;-62
2023/09/08 03:32:25;;;;;;;;;;;;;;;22.05;62.02;97526.90;599327;237;64488;-62
2023/09/08 03:34:52;;;;;;;;;;;;;;;22.06;62.20;97533.84;599282;237;66788;-63
2023/09/08 03:37:20;;;;;;;;;;;;;;;22.06;62.10;97525.82;599261;237;65461;-62
2023/09/08 03:39:49;;;;;;;;;;;;;;;22.06;61.94;97531.17;599230;237;67693;-63
2023/09/08 03:42:17;;;;;;;;;;;;;;;22.05;62.18;97522.34;599243;237;66928;-62
2023/09/08 03:44:45;;;;;;;;;;;;;;;22.05;62.04;97530.38;599228;237;62539;-62
2023/09/08 03:47:13;;;;;;;;;;;;;;;22.05;62.27;97526.90;599281;237;67173;-62
2023/09/08 03:49:40;;;;;;;;;;;;;;;22.04;62.39;97528.75;599213;237;67408;-62
2023/09/08 03:52:08;;;;;;;;;;;;;;;22.04;62.37;97530.63;599208;237;62599;-62
2023/09/08 03:54:37;;;;;;;;;;;;;;;22.04;62.33;97530.63;599254;237;65147;-62
2023/09/08 03:57:05;;;;;;;;;;;;;;;22.04;62.31;97527.95;599255;237;65079;-62
2023/09/08 03:59:32;;;;;;;;;;;;;;;22.04;62.83;97525.27;599284;237;65104;-62
2023/09/08 04:02:01;;;;;;;;;;;;;;;22.03;62.24;97521.80;599245;237;64778;-62
2023/09/08 04:04:29;;;;;;;;;;;;;;;22.03;62.22;97526.35;599224;237;65439;-62
2023/09/08 04:06:56;;;;;;;;;;;;;;;22.03;62.14;97526.35;599237;237;62807;-62
2023/09/08 04:09:24;;;;;;;;;;;;;;;22.03;62.07;97523.67;599244;237;66825;-62
2023/09/08 04:11:51;;;;;;;;;;;;;;;22.03;62.67;97537.05;599288;237;67006;-62
2023/09/08 04:14:19;;;;;;;;;;;;;;;22.03;62.25;97539.73;599188;237;62918;-62
2023/09/08 04:16:47;;;;;;;;;;;;;;;22.02;62.43;97535.45;599220;237;68254;-62
2023/09/08 04:19:14;;;;;;;;;;;;;;;22.02;61.87;97533.58;599214;237;64864;-62
2023/09/08 04:21:42;;;;;;;;;;;;;;;22.02;62.27;97538.94;599218;237;65077;-62
2023/09/08 04:24:10;;;;;;;;;;;;;;;22.02;62.17;97535.45;599272;237;68338;-62
2023/09/08 04:26:38;;;;;;;;;;;;;;;22.02;61.96;97538.94;599246;237;64884;-62
2023/09/08 04:29:05;;;;;;;;;;;;;;;22.03;62.64;97537.05;599225;237;65745;-62
2023/09/08 04:31:33;;;;;;;;;;;;;;;22.02;61.99;97543.48;599239;237;67359;-62
2023/09/08 04:34:00;;;;;;;;;;;;;;;22.01;62.22;97541.86;599218;237;64881;-62
2023/09/08 04:36:30;;;;;;;;;;;;;;;22.02;63.07;97538.14;599282;237;65253;-62
2023/09/08 04:38:58;;;;;;;;;;;;;;;22.00;63.62;97546.42;599230;237;67097;-62
2023/09/08 04:41:25;;;;;;;;;;;;;;;22.00;62.81;97538.39;599242;237;67599;-62
2023/09/08 04:43:53;;;;;;;;;;;;;;;21.99;62.71;97544.82;599241;237;65309;-62
2023/09/08 04:46:21;;;;;;;;;;;;;;;21.99;62.77;97549.34;599186;237;67266;-62
2023/09/08 04:48:49;;;;;;;;;;;;;;;22.00;63.42;97550.97;599227;237;67665;-62
2023/09/08 04:51:17;;;;;;;;;;;;;;;21.99;62.82;97543.98;599244;237;64522;-69
2023/09/08 04:53:45;;;;;;;;;;;;;;;21.99;62.76;97555.52;599210;237;65996;-69
2023/09/08 04:56:14;;;;;;;;;;;;;;;21.98;62.42;97547.75;599244;237;66940;-69
2023/09/08 04:58:42;;;;;;;;;;;;;;;22.00;62.16;97553.64;599258;237;63009;-69
2023/09/08 05:01:10;;;;;;;;;;;;;;;21.98;61.81;97543.19;599246;237;67466;-69
2023/09/08 05:03:38;;;;;;;;;;;;;;;22.00;62.47;97548.30;599275;237;65395;-69
2023/09/08 05:06:07;;;;;;;;;;;;;;;21.99;62.06;97542.14;599264;237;63071;-69
2023/09/08 05:08:34;;;;;;;;;;;;;;;21.99;62.31;97549.34;599267;237;67342;-69
2023/09/08 05:11:02;;;;;;;;;;;;;;;22.00;62.07;97548.30;599260;237;67714;-69
2023/09/08 05:13:31;;;;;;;;;;;;;;;21.99;62.16;97544.82;599235;237;65667;-69
2023/09/08 05:16:10;;;;;;;;;;;;;;;22.00;62.21;97540.27;599232;237;67965;-69
2023/09/08 05:18:31;;;;;;;;;;;;;;;21.99;62.04;97541.31;598981;237;43413;-69
2023/09/08 05:21:00;;;;;;;;;;;;;;;21.99;62.04;97539.47;599277;237;62572;-70
2023/09/08 05:23:28;;;;;;;;;;;;;;;21.99;62.07;97542.14;599239;237;66803;-69
2023/09/08 05:25:56;;;;;;;;;;;;;;;21.99;62.01;97552.84;599251;237;64912;-69
2023/09/08 05:28:23;;;;;;;;;;;;;;;21.99;61.94;97552.02;599223;237;65772;-69
2023/09/08 05:30:54;;;;;;;;;;;;;;;21.99;62.09;97543.98;599292;237;67437;-69
2023/09/08 05:33:22;;;;;;;;;;;;;;;21.99;62.31;97546.67;599259;237;64959;-69
2023/09/08 05:35:49;;;;;;;;;;;;;;;21.99;62.43;97538.64;599246;237;64867;-69
2023/09/08 05:38:17;;;;;;;;;;;;;;;22.00;62.21;97537.59;599228;237;65078;-69
2023/09/08 05:40:45;;;;;;;;;;;;;;;21.99;62.28;97541.31;599243;237;65201;-69
2023/09/08 05:43:12;;;;;;;;;;;;;;;21.99;62.14;97542.14;599297;237;64913;-68
2023/09/08 05:45:40;;;;;;;;;;;;;;;21.99;62.35;97542.14;599285;237;67828;-69
2023/09/08 05:48:07;;;;;;;;;;;;;;;21.98;62.36;97543.19;599260;237;64739;-69
2023/09/08 05:50:35;;;;;;;;;;;;;;;21.98;62.41;97537.84;599230;237;63753;-69
2023/09/08 05:53:03;;;;;;;;;;;;;;;21.99;62.36;97543.98;599201;237;67959;-69
2023/09/08 05:55:31;;;;;;;;;;;;;;;21.98;62.59;97539.72;599201;237;64577;-67
2023/09/08 05:57:59;;;;;;;;;;;;;;;21.99;62.48;97549.34;599202;237;64534;-68
2023/09/08 06:00:26;;;;;;;;;;;;;;;21.99;62.14;97549.34;599269;237;64792;-67
2023/09/08 06:02:54;;;;;;;;;;;;;;;21.99;62.78;97546.67;592314;237;66345;-67
2023/09/08 06:05:22;;;;;;;;;;;;;;;21.98;63.57;97548.55;599214;237;62740;-67
2023/09/08 06:07:49;;;;;;;;;;;;;;;21.98;64.25;97542.39;599221;237;67237;-67
2023/09/08 06:10:17;;;;;;;;;;;;;;;21.98;64.26;97545.87;599120;237;65476;-67
2023/09/08 06:12:44;;;;;;;;;;;;;;;21.97;64.29;97543.47;599134;237;62907;-66
2023/09/08 06:15:12;;;;;;;;;;;;;;;21.97;63.44;97538.92;599165;237;67150;-67
2023/09/08 06:17:39;;;;;;;;;;;;;;;21.97;63.85;97546.15;599175;237;67557;-66
2023/09/08 06:20:08;;;;;;;;;;;;;;;21.98;64.84;97545.07;599182;237;65085;-66
2023/09/08 06:22:36;;;;;;;;;;;;;;;21.95;59.80;97538.38;599219;237;65092;-66
2023/09/08 06:25:04;;;;;;;;;;;;;;;21.97;60.64;97541.59;599166;237;65642;-67
2023/09/08 06:27:31;;;;;;;;;;;;;;;22.00;62.35;97532.23;599232;237;65790;-67
2023/09/08 06:29:59;;;;;;;;;;;;;;;21.99;62.24;97541.31;599219;237;67284;-67
2023/09/08 06:32:27;;;;;;;;;;;;;;;22.00;62.56;97537.59;599198;237;64946;-68
2023/09/08 06:34:55;;;;;;;;;;;;;;;22.01;62.96;97539.19;599257;237;65042;-67
2023/09/08 06:37:23;;;;;;;;;;;;;;;22.01;62.81;97542.66;599203;237;65552;-66
2023/09/08 06:39:50;;;;;;;;;;;;;;;22.02;62.65;97546.17;600957;234;67284;-67
2023/09/08 06:42:19;;;;;;;;;;;;;;;22.02;62.55;97546.17;606007;234;64485;-67
2023/09/08 06:44:48;;;;;;;;;;;;;;;22.03;62.78;97542.41;605970;234;44567;-66
2023/09/08 06:47:16;;;;;;;;;;;;;;;22.03;62.48;97547.77;605825;234;67527;-66
2023/09/08 06:49:44;;;;;;;;;;;;;;;22.04;63.19;97549.36;605870;234;62489;-66
2023/09/08 06:52:11;;;;;;;;;;;;;;;22.05;63.45;97548.31;605921;234;64540;-67
2023/09/08 06:54:39;;;;;;;;;;;;;;;22.05;63.57;97548.31;605841;234;67276;-66
2023/09/08 06:57:06;;;;;;;;;;;;;;;22.05;63.88;97548.31;605858;234;65312;-64
2023/09/08 06:59:34;;;;;;;;;;;;;;;22.05;64.83;97545.63;599222;234;65794;-67
2023/09/08 07:02:02;;;;;;;;;;;;;;;22.05;65.61;97543.75;599230;237;65114;-66
2023/09/08 07:04:29;;;;;;;;;;;;;;;22.06;67.25;97547.23;602425;234;65217;-68
2023/09/08 07:06:57;;;;;;;;;;;;;;;22.05;67.32;97553.66;603616;234;67255;-67
2023/09/08 07:09:25;;;;;;;;;;;;;;;22.04;67.00;97552.84;599382;234;67582;-66
2023/09/08 07:11:53;;;;;;;;;;;;;;;22.04;66.80;97557.39;602890;234;62489;-68
2023/09/08 07:14:20;;;;;;;;;;;;;;;22.04;66.31;97550.16;601550;234;65835;-67
2023/09/08 07:16:48;;;;;;;;;;;;;;;22.04;65.12;97552.84;600973;234;67104;-68
2023/09/08 07:19:15;;;;;;;;;;;;;;;22.05;66.53;97553.66;597792;235;62750;-68
2023/09/08 07:21:43;;;;;;;;;;;;;;;22.05;66.58;97556.34;597658;235;68066;-67
2023/09/08 07:24:12;;;;;;;;;;;;;;;22.06;66.21;97556.05;596930;235;65110;-67
2023/09/08 07:26:39;;;;;;;;;;;;;;;22.06;66.55;97555.26;598026;235;65018;-70
2023/09/08 07:29:07;;;;;;;;;;;;;;;22.05;66.88;97553.66;596910;235;65495;-70
2023/09/08 07:31:35;;;;;;;;;;;;;;;22.06;66.21;97549.91;598210;235;67221;-70
2023/09/08 07:34:02;;;;;;;;;;;;;;;22.05;66.56;97559.02;598472;235;65074;-71
2023/09/08 07:36:30;;;;;;;;;;;;;;;22.05;67.07;97548.31;600895;235;66936;-70
2023/09/08 07:38:58;;;;;;;;;;;;;;;22.05;67.16;97559.81;598512;235;66830;-69
2023/09/08 07:41:26;;;;;;;;;;;;;;;22.04;66.75;97552.03;600834;235;65075;-68
2023/09/08 07:43:53;;;;;;;;;;;;;;;22.06;67.10;97552.58;596135;235;67842;-66
2023/09/08 07:46:22;;;;;;;;;;;;;;;22.05;65.30;97553.66;596465;235;45481;-69
2023/09/08 07:48:50;;;;;;;;;;;;;;;22.06;66.12;97555.26;596980;235;65021;-68
2023/09/08 07:51:18;;;;;;;;;;;;;;;22.07;67.38;97557.69;598311;235;66931;-68
2023/09/08 07:53:45;;;;;;;;;;;;;;;22.07;66.99;97554.17;598507;235;66933;-67
2023/09/08 07:56:13;;;;;;;;;;;;;;;22.06;67.26;97549.91;601900;235;65792;-63
2023/09/08 07:58:40;;;;;;;;;;;;;;;22.07;66.75;97551.50;601861;235;68076;-62
2023/09/08 08:01:08;;;;;;;;;;;;;;;22.07;67.13;97551.50;601916;235;66906;-63
2023/09/08 08:03:36;;;;;;;;;;;;;;;22.07;65.94;97551.50;601884;235;64842;-61
2023/09/08 08:06:03;;;;;;;;;;;;;;;22.07;65.43;97552.33;600812;235;64743;-62
2023/09/08 08:08:46;;;;;;;;;;;;;;;22.09;65.17;97549.38;598743;235;65255;-63
2023/09/08 08:11:15;;;;;;;;;;;;;;;22.08;63.89;97547.77;597882;235;62803;-61
2023/09/08 08:13:42;;;;;;;;;;;;;;;22.09;64.18;97539.47;597104;235;67019;-62
2023/09/08 08:16:10;;;;;;;;;;;;;;;22.09;65.43;97542.14;596848;235;66929;-60
2023/09/08 08:18:37;;;;;;;;;;;;;;;22.10;66.12;97546.45;599008;235;64877;-62
2023/09/08 08:21:05;;;;;;;;;;;;;;;22.10;66.68;97542.97;596713;235;67208;-62
2023/09/08 08:23:33;;;;;;;;;;;;;;;22.10;67.04;97534.94;598178;235;64456;-63
2023/09/08 08:26:01;;;;;;;;;;;;;;;22.09;67.13;97528.76;598923;235;65091;-67
2023/09/08 08:28:28;;;;;;;;;;;;;;;22.09;67.09;97531.44;597679;235;64800;-67
2023/09/08 08:30:56;;;;;;;;;;;;;;;22.11;66.92;97536.53;599126;235;65638;-68
2023/09/08 08:33:25;;;;;;;;;;;;;;;22.10;67.09;97533.06;600141;235;62873;-66
2023/09/08 08:35:54;;;;;;;;;;;;;;;22.10;66.69;97529.59;598993;235;67180;-62
2023/09/08 08:38:21;;;;;;;;;;;;;;;22.11;66.93;97531.18;596016;235;64881;-62
2023/09/08 08:40:49;;;;;;;;;;;;;;;22.11;66.14;97536.53;596684;235;64890;-62
2023/09/08 08:43:16;;;;;;;;;;;;;;;22.10;63.93;97535.73;600265;235;64817;-62
2023/09/08 08:45:45;;;;;;;;;;;;;;;22.12;65.54;97530.90;598534;235;65104;-62
2023/09/08 08:48:14;;;;;;;;;;;;;;;22.12;65.53;97533.58;599229;235;66143;-61
2023/09/08 08:50:42;;;;;;;;;;;;;;;22.13;67.01;97523.70;596069;235;66824;-60
2023/09/08 08:53:12;;;;;;;;;;;;;;;22.12;67.19;97533.58;598970;235;65044;-60
2023/09/08 08:55:40;;;;;;;;;;;;;;;22.12;67.08;97532.78;601422;235;64988;-60
2023/09/08 08:58:08;;;;;;;;;;;;;;;22.12;67.32;97530.90;601275;235;67076;-61
2023/09/08 09:00:40;;;;;;;;;;;;;;;22.12;67.12;97527.42;599770;235;64837;-62
2023/09/08 09:03:08;;;;;;;;;;;;;;;22.12;67.16;97524.75;597063;235;62905;-62
2023/09/08 09:05:37;;;;;;;;;;;;;;;22.11;64.11;97525.83;599314;235;66800;-62
2023/09/08 09:08:05;;;;;;;;;;;;;;;22.13;65.47;97523.70;598192;235;66838;-62
2023/09/08 09:10:33;;;;;;;;;;;;;;;22.13;66.90;97519.14;597145;235;65106;-62
2023/09/08 09:13:00;;;;;;;;;;;;;;;22.13;66.52;97524.50;598089;235;68233;-62
2023/09/08 09:15:37;;;;;;;;;;;;;;;22.13;66.81;97521.82;600763;234;67868;-62
2023/09/08 09:18:06;;;;;;;;;;;;;;;22.13;67.44;97521.02;603121;234;65102;-62
2023/09/08 09:20:33;;;;;;;;;;;;;;;22.12;67.69;97527.42;604161;234;67216;-62
2023/09/08 09:23:01;;;;;;;;;;;;;;;22.12;67.66;97519.39;600234;234;64652;-62
2023/09/08 09:25:32;;;;;;;;;;;;;;;22.12;67.76;97511.37;599168;237;62777;-62
2023/09/08 09:28:00;;;;;;;;;;;;;;;22.12;67.51;97508.69;599220;237;64838;-61
2023/09/08 09:30:30;;;;;;;;;;;;;;;22.12;67.02;97516.72;599146;237;64956;-63
2023/09/08 09:33:01;;;;;;;;;;;;;;;22.12;65.37;97520.19;599207;237;65070;-63
2023/09/08 09:35:42;;;;;;;;;;;;;;;22.12;65.41;97517.52;599171;237;65263;-62
2023/09/08 09:38:10;;;;;;;;;;;;;;;22.13;64.96;97526.38;599131;237;67117;-63
2023/09/08 09:40:38;;;;;;;;;;;;;;;22.14;66.18;97517.27;599183;237;65058;-62
2023/09/08 09:43:07;;;;;;;;;;;;;;;22.13;65.21;97512.98;599179;237;68020;-63
2023/09/08 09:45:35;;;;;;;;;;;;;;;22.14;64.48;97514.59;599168;237;66931;-66
2023/09/08 09:48:04;;;;;;;;;;;;;;;22.14;64.56;97512.70;599207;237;64922;-66
2023/09/08 09:50:38;;;;;;;;;;;;;;;22.14;63.89;97507.36;599091;237;67395;-65
2023/09/08 09:53:03;;;;;;;;;;;;;;;22.15;65.90;97506.30;599094;237;66872;-64
2023/09/08 09:55:31;;;;;;;;;;;;;;;22.15;66.33;97494.77;599009;237;62797;-66
2023/09/08 09:58:01;;;;;;;;;;;;;;;22.15;65.76;97508.16;599117;237;64932;-63
2023/09/08 10:00:29;;;;;;;;;;;;;;;22.15;64.98;97508.16;599155;237;65143;-63
2023/09/08 10:02:57;;;;;;;;;;;;;;;22.15;64.58;97508.16;599110;237;63856;-72
2023/09/08 10:05:25;;;;;;;;;;;;;;;22.15;63.84;97505.48;599129;237;64775;-71
2023/09/08 10:07:52;;;;;;;;;;;;;;;22.16;63.41;97507.90;599203;237;64535;-64
2023/09/08 10:10:20;;;;;;;;;;;;;;;22.17;63.53;97514.05;599134;237;65007;-64
2023/09/08 10:12:49;;;;;;;;;;;;;;;22.17;63.57;97509.50;599105;237;68375;-64
2023/09/08 10:15:19;;;;;;;;;;;;;;;22.17;63.87;97493.44;599028;237;67240;-63
2023/09/08 10:17:48;;;;;;;;;;;;;;;22.17;62.75;97490.75;599160;234;62932;-64
2023/09/08 10:20:16;;;;;;;;;;;;;;;22.19;62.31;97495.09;599171;237;64655;-63
2023/09/08 10:22:43;;;;;;;;;;;;;;;22.19;61.99;97495.09;599195;234;66897;-67
2023/09/08 10:25:13;;;;;;;;;;;;;;;22.18;62.81;97488.94;599075;237;64866;-66
2023/09/08 10:27:41;;;;;;;;;;;;;;;22.19;63.09;97492.41;599095;237;67466;-68
2023/09/08 10:30:09;;;;;;;;;;;;;;;22.19;63.20;97487.86;599694;234;64673;-69
2023/09/08 10:32:38;;;;;;;;;;;;;;;22.20;65.77;97491.33;599209;234;65130;-67
2023/09/08 10:35:06;;;;;;;;;;;;;;;22.20;67.04;97486.77;599125;237;67317;-68
2023/09/08 10:37:33;;;;;;;;;;;;;;;22.18;66.78;97483.58;599188;237;67095;-68
2023/09/08 10:40:19;;;;;;;;;;;;;;;22.17;67.08;97482.73;599221;237;63643;-67
2023/09/08 10:42:47;;;;;;;;;;;;;;;22.18;67.17;97478.23;599148;237;68163;-69
2023/09/08 10:45:20;;;;;;;;;;;;;;;22.18;67.77;97486.27;599156;236;67144;-67
2023/09/08 10:47:49;;;;;;;;;;;;;;;22.15;67.56;97479.53;599196;237;63833;-68
2023/09/08 10:50:18;;;;;;;;;;;;;;;22.15;66.85;97474.19;599152;237;67402;-68
2023/09/08 10:52:47;;;;;;;;;;;;;;;22.15;66.82;97478.70;598835;237;64627;-68
2023/09/08 10:55:15;;;;;;;;;;;;;;;22.16;67.18;97472.30;598273;237;62591;-69
2023/09/08 10:57:46;;;;;;;;;;;;;;;22.15;67.15;97476.86;599192;237;64906;-69
2023/09/08 11:00:15;;;;;;;;;;;;;;;22.15;67.05;97476.86;599253;237;67078;-68
2023/09/08 11:02:45;;;;;;;;;;;;;;;22.15;67.22;97473.35;599048;237;63058;-68
2023/09/08 11:05:14;;;;;;;;;;;;;;;22.15;67.00;97465.33;599091;237;67337;-68
2023/09/08 11:07:43;;;;;;;;;;;;;;;22.15;66.79;97468.83;599203;237;64655;-68
2023/09/08 11:10:11;;;;;;;;;;;;;;;22.15;66.71;97468.83;599143;237;63636;-68
2023/09/08 11:12:39;;;;;;;;;;;;;;;22.14;67.20;97467.20;599176;237;65149;-69
2023/09/08 11:15:08;;;;;;;;;;;;;;;22.16;62.15;97466.95;599192;237;67411;-68
2023/09/08 11:17:39;;;;;;;;;;;;;;;22.18;63.60;97459.49;599124;237;63907;-68
2023/09/08 11:20:10;;;;;;;;;;;;;;;22.19;66.50;97462.97;599102;237;64936;-68
2023/09/08 11:22:39;;;;;;;;;;;;;;;22.19;66.38;97462.97;599203;237;67137;-68
2023/09/08 11:25:14;;;;;;;;;;;;;;;22.18;67.33;97456.81;599136;237;64899;-68
2023/09/08 11:27:42;;;;;;;;;;;;;;;22.17;67.26;97449.80;599084;237;67113;-68
2023/09/08 11:30:10;;;;;;;;;;;;;;;22.17;67.63;97449.80;599167;237;66954;-68
2023/09/08 11:32:37;;;;;;;;;;;;;;;22.16;67.45;97459.72;599171;237;65053;-68
2023/09/08 11:35:11;;;;;;;;;;;;;;;22.15;66.61;97451.94;599215;237;66737;-68
2023/09/08 11:37:38;;;;;;;;;;;;;;;22.16;66.81;97450.89;599028;237;67031;-68
2023/09/08 11:40:15;;;;;;;;;;;;;;;22.16;67.11;97443.66;599092;237;62774;-68
2023/09/08 11:42:43;;;;;;;;;;;;;;;22.16;67.23;97438.30;599234;237;64656;-67
2023/09/08 11:45:17;;;;;;;;;;;;;;;22.16;67.31;97430.27;599132;236;66785;-67
2023/09/08 11:47:44;;;;;;;;;;;;;;;22.16;67.04;97426.80;599213;237;62937;-68
2023/09/08 11:50:15;;;;;;;;;;;;;;;22.16;67.39;97422.23;599178;237;66961;-68
2023/09/08 11:52:43;;;;;;;;;;;;;;;22.15;67.58;97415.30;599082;237;66839;-68
2023/09/08 11:55:12;;;;;;;;;;;;;;;22.16;67.50;97408.06;599043;237;62675;-68
2023/09/08 11:57:41;;;;;;;;;;;;;;;22.15;67.15;97404.58;599211;237;67290;-66
2023/09/08 12:00:10;;;;;;;;;;;;;;;22.15;67.44;97412.61;599123;237;66934;-68
2023/09/08 12:02:38;;;;;;;;;;;;;;;22.16;67.72;97400.03;599147;237;66131;-65
2023/09/08 12:05:05;;;;;;;;;;;;;;;22.16;67.78;97394.67;599133;237;67115;-67
2023/09/08 12:07:33;;;;;;;;;;;;;;;22.16;67.54;97400.03;599070;237;65058;-68
2023/09/08 12:10:03;;;;;;;;;;;;;;;22.17;67.58;97406.97;599199;237;62914;-68
2023/09/08 12:12:31;;;;;;;;;;;;;;;22.16;67.87;97408.85;599078;237;67426;-68
2023/09/08 12:14:59;;;;;;;;;;;;;;;22.16;67.31;97383.97;599014;237;64820;-67
2023/09/08 12:17:28;;;;;;;;;;;;;;;22.16;67.24;97394.67;599117;237;62806;-67
2023/09/08 12:19:56;;;;;;;;;;;;;;;22.15;67.03;97393.87;599170;237;67253;-68
2023/09/08 12:22:23;;;;;;;;;;;;;;;22.16;66.27;97381.29;599211;237;66836;-68
2023/09/08 12:24:52;;;;;;;;;;;;;;;22.16;64.14;97383.97;599145;237;65018;-66
2023/09/08 12:27:20;;;;;;;;;;;;;;;22.18;63.31;97373.83;598916;237;67417;-68
2023/09/08 12:29:57;;;;;;;;;;;;;;;22.19;64.28;97372.75;599151;237;67243;-67
2023/09/08 12:32:26;;;;;;;;;;;;;;;22.19;64.81;97377.30;599167;237;65083;-68
2023/09/08 12:34:53;;;;;;;;;;;;;;;22.19;66.71;97380.78;599065;237;64912;-67
2023/09/08 12:37:24;;;;;;;;;;;;;;;22.19;67.19;97375.42;599131;237;64832;-68
2023/09/08 12:39:51;;;;;;;;;;;;;;;22.17;66.94;97375.65;599085;237;64930;-67
2023/09/08 12:42:20;;;;;;;;;;;;;;;22.17;66.70;97370.30;599152;237;67235;-67
2023/09/08 12:44:48;;;;;;;;;;;;;;;22.17;66.00;97369.50;599140;237;65041;-67
2023/09/08 12:47:15;;;;;;;;;;;;;;;22.18;66.26;97360.45;599208;237;63859;-67
2023/09/08 12:49:43;;;;;;;;;;;;;;;22.16;65.89;97355.31;599107;237;63416;-67
2023/09/08 12:52:11;;;;;;;;;;;;;;;22.18;65.17;97347.06;599143;237;66952;-68